Time;durP1;ratioP1;P1;durP2;ratioP2;P2;SDS_P1;SDS_P2;PMS_P1;PMS_P2;Temp;Humidity;BMP_temperature;BMP_pressure;BME280_temperature;BME280_humidity;BME280_pressure;Samples;Min_cycle;Max_cycle;Signal;HPM_P1;HPM_P2
2022/06/26 00:01:28;;;;;;;8.55;7.75;;;22.30;62.00;;;;;;4910967;29;20166;-91
2022/06/26 00:03:55;;;;;;;8.50;7.80;;;22.30;62.00;;;;;;4910813;29;20197;-90
2022/06/26 00:06:22;;;;;;;8.18;7.47;;;22.30;62.00;;;;;;4910771;29;20169;-90
2022/06/26 00:08:49;;;;;;;8.88;8.07;;;22.30;62.00;;;;;;4910898;29;20169;-91
2022/06/26 00:11:14;;;;;;;8.95;8.07;;;22.30;62.00;;;;;;4910678;29;20166;-91
2022/06/26 00:13:44;;;;;;;8.52;7.72;;;22.30;62.00;;;;;;4910638;29;20203;-91
2022/06/26 00:16:14;;;;;;;8.75;7.95;;;22.30;62.10;;;;;;4927011;29;20182;-90
2022/06/26 00:18:41;;;;;;;7.97;7.28;;;22.30;62.00;;;;;;4926416;29;20768;-90
2022/06/26 00:21:09;;;;;;;8.80;8.00;;;22.30;62.10;;;;;;4910513;29;20206;-90
2022/06/26 00:23:38;;;;;;;8.90;8.10;;;22.30;62.10;;;;;;4925708;29;20158;-90
2022/06/26 00:26:06;;;;;;;9.35;8.45;;;22.30;62.20;;;;;;4910016;29;20161;-91
2022/06/26 00:28:33;;;;;;;8.77;7.97;;;22.20;62.20;;;;;;4910873;29;20237;-90
2022/06/26 00:31:01;;;;;;;9.20;8.32;;;22.20;62.20;;;;;;4910472;29;20516;-90
2022/06/26 00:33:29;;;;;;;8.50;7.70;;;22.30;62.20;;;;;;4913043;29;20174;-91
2022/06/26 00:35:54;;;;;;;8.23;7.43;;;22.30;63.10;;;;;;4915405;29;20216;-90
2022/06/26 00:38:21;;;;;;;7.88;7.18;;;22.20;62.20;;;;;;4932449;29;20226;-90
2022/06/26 00:40:49;;;;;;;8.55;7.80;;;22.20;62.20;;;;;;4916006;29;20169;-91
2022/06/26 00:43:14;;;;;;;7.80;7.10;;;22.20;62.20;;;;;;4916000;29;20172;-91
2022/06/26 00:45:41;;;;;;;8.73;7.93;;;22.20;62.20;;;;;;4915848;29;20253;-91
2022/06/26 00:48:12;;;;;;;9.00;8.20;;;22.20;62.20;;;;;;4913776;29;20715;-91
2022/06/26 00:50:38;;;;;;;9.02;8.23;;;22.20;62.20;;;;;;4925362;29;20162;-90
2022/06/26 00:53:04;;;;;;;8.73;8.00;;;22.20;62.30;;;;;;4909535;29;20163;-90
2022/06/26 00:55:33;;;;;;;8.70;7.90;;;22.20;62.30;;;;;;4909049;29;20194;-90
2022/06/26 00:58:00;;;;;;;8.63;7.88;;;22.20;62.30;;;;;;4925787;29;20253;-91
2022/06/26 01:00:26;;;;;;;8.50;7.70;;;22.20;62.30;;;;;;4910132;29;20162;-91
2022/06/26 01:02:53;;;;;;;8.85;7.95;;;22.20;62.30;;;;;;4909890;29;20166;-90
2022/06/26 01:05:18;;;;;;;8.70;7.90;;;22.20;62.40;;;;;;4909662;29;20229;-90
2022/06/26 01:07:45;;;;;;;8.88;8.07;;;22.20;62.40;;;;;;4925258;29;20166;-90
2022/06/26 01:10:15;;;;;;;8.70;7.90;;;22.10;62.40;;;;;;4909101;29;20166;-90
2022/06/26 01:12:43;;;;;;;9.10;8.27;;;22.10;62.40;;;;;;4940599;29;20626;-90
2022/06/26 01:15:09;;;;;;;8.25;7.55;;;22.10;62.40;;;;;;4909382;29;20227;-90
2022/06/26 01:17:36;;;;;;;9.10;8.30;;;22.10;62.40;;;;;;4909421;29;20178;-90
2022/06/26 01:20:11;;;;;;;8.75;7.95;;;22.10;62.40;;;;;;4924842;29;20248;-90
2022/06/26 01:22:40;;;;;;;8.18;7.47;;;22.10;62.40;;;;;;4892383;29;20188;-90
2022/06/26 01:25:08;;;;;;;8.20;7.50;;;22.20;62.50;;;;;;4924904;29;20177;-91
2022/06/26 01:27:42;;;;;;;8.95;8.15;;;22.10;62.40;;;;;;4909413;29;20166;-90
2022/06/26 01:30:10;;;;;;;8.70;7.90;;;22.10;62.50;;;;;;4909307;29;20166;-90
2022/06/26 01:32:37;;;;;;;8.25;7.55;;;22.10;62.50;;;;;;4909971;29;20166;-90
2022/06/26 01:35:16;;;;;;;8.93;8.13;;;22.10;63.40;;;;;;4908886;29;20225;-90
2022/06/26 01:37:44;;;;;;;9.43;8.60;;;22.10;62.50;;;;;;4924441;29;20648;-90
2022/06/26 01:40:14;;;;;;;9.18;8.38;;;22.10;62.50;;;;;;4908722;29;20165;-90
2022/06/26 01:42:44;;;;;;;8.75;7.95;;;22.10;62.50;;;;;;4924583;29;20162;-91
2022/06/26 01:45:11;;;;;;;8.60;7.80;;;22.10;62.60;;;;;;4924333;29;20194;-90
2022/06/26 01:47:36;;;;;;;9.30;8.40;;;22.00;62.60;;;;;;4908134;29;20320;-90
2022/06/26 01:50:08;;;;;;;8.48;7.72;;;22.10;62.70;;;;;;4924334;29;20206;-90
2022/06/26 01:52:34;;;;;;;8.88;8.07;;;22.10;62.70;;;;;;4924136;29;20174;-90
2022/06/26 01:54:59;;;;;;;8.80;8.00;;;22.10;62.70;;;;;;4907997;29;20548;-91
2022/06/26 01:57:26;;;;;;;8.95;8.15;;;22.10;62.70;;;;;;4924201;29;20166;-91
2022/06/26 01:59:55;;;;;;;9.02;8.23;;;22.10;62.60;;;;;;4908297;29;20696;-90
2022/06/26 02:02:21;;;;;;;8.80;8.00;;;22.10;62.60;;;;;;4908741;29;20159;-91
2022/06/26 02:04:50;;;;;;;9.35;8.45;;;22.10;62.70;;;;;;4908448;29;20178;-91
2022/06/26 02:07:17;;;;;;;8.55;7.82;;;22.10;62.70;;;;;;4911172;29;20865;-89
2022/06/26 02:15:20;;;;;;;8.90;8.10;;;22.00;62.70;;;;;;4929780;29;20213;-88
2022/06/26 02:17:48;;;;;;;9.10;8.30;;;22.00;62.70;;;;;;4912507;29;20663;-89
2022/06/26 02:20:16;;;;;;;8.63;7.90;;;22.00;62.70;;;;;;4928692;29;20166;-88
2022/06/26 02:22:43;;;;;;;8.80;8.00;;;22.00;62.80;;;;;;4912949;29;20253;-88
2022/06/26 02:25:11;;;;;;;8.35;7.65;;;22.00;62.70;;;;;;4912703;29;20599;-88
2022/06/26 02:27:36;;;;;;;8.70;7.90;;;22.00;62.80;;;;;;4912618;29;20648;-88
2022/06/26 02:30:10;;;;;;;9.05;8.23;;;22.00;62.80;;;;;;4927921;29;20276;-89
2022/06/26 02:32:37;;;;;;;8.70;8.00;;;22.00;62.90;;;;;;4928525;29;20170;-89
2022/06/26 02:35:04;;;;;;;8.93;8.13;;;22.00;62.90;;;;;;4929582;29;20220;-89
2022/06/26 02:37:32;;;;;;;8.68;7.88;;;22.00;62.90;;;;;;4929389;29;20166;-88
2022/06/26 02:40:06;;;;;;;8.95;8.15;;;22.00;62.90;;;;;;4913879;29;20701;-89
2022/06/26 02:42:33;;;;;;;9.68;8.77;;;22.00;62.90;;;;;;4929341;29;20197;-90
2022/06/26 02:44:58;;;;;;;9.07;8.27;;;22.00;62.80;;;;;;4930136;29;20544;-90
2022/06/26 02:47:24;;;;;;;9.00;8.20;;;22.00;62.80;;;;;;4913531;29;20268;-90
2022/06/26 02:49:51;;;;;;;9.25;8.45;;;22.00;62.80;;;;;;4945368;29;20280;-89
2022/06/26 02:52:16;;;;;;;8.38;7.68;;;22.00;62.80;;;;;;4914101;29;20229;-90
2022/06/26 02:54:43;;;;;;;8.68;7.88;;;22.00;62.90;;;;;;4914810;29;20202;-89
2022/06/26 02:57:12;;;;;;;9.30;8.40;;;22.00;62.80;;;;;;4916320;29;20166;-90
2022/06/26 02:59:38;;;;;;;9.07;8.27;;;22.00;62.80;;;;;;4931840;29;20169;-90
2022/06/26 03:02:09;;;;;;;8.75;7.95;;;22.10;62.80;;;;;;4916508;29;20230;-90
2022/06/26 03:04:37;;;;;;;9.23;8.43;;;22.00;62.80;;;;;;4934036;29;20166;-91
2022/06/26 03:07:08;;;;;;;9.15;8.35;;;22.00;62.70;;;;;;4917913;29;20198;-90
2022/06/26 03:09:35;;;;;;;8.55;7.75;;;22.10;62.80;;;;;;4933526;29;20249;-89
2022/06/26 03:12:13;;;;;;;8.75;7.95;;;22.10;62.70;;;;;;4879970;29;20198;-90
2022/06/26 03:14:39;;;;;;;9.05;8.25;;;22.00;62.70;;;;;;4879574;29;20215;-90
2022/06/26 03:17:06;;;;;;;8.73;7.90;;;22.00;62.70;;;;;;4861148;29;20190;-89
2022/06/26 03:19:32;;;;;;;8.68;7.88;;;22.00;62.70;;;;;;4862098;29;20202;-90
2022/06/26 03:22:17;;;;;;;8.68;7.88;;;22.00;62.80;;;;;;4862029;29;20196;-90
2022/06/26 03:24:43;;;;;;;8.73;7.93;;;22.00;62.70;;;;;;4892652;29;20178;-90
2022/06/26 03:27:12;;;;;;;8.70;8.00;;;22.00;62.80;;;;;;4861392;29;20678;-90
2022/06/26 03:29:40;;;;;;;9.23;8.43;;;22.00;62.80;;;;;;4862308;29;20259;-89
2022/06/26 03:32:08;;;;;;;9.18;8.38;;;22.00;62.80;;;;;;4862570;29;20187;-90
2022/06/26 03:34:35;;;;;;;8.23;7.43;;;22.10;62.80;;;;;;4860957;29;20251;-90
2022/06/26 03:37:03;;;;;;;8.80;8.00;;;22.00;62.70;;;;;;4861496;29;20223;-90
2022/06/26 03:39:29;;;;;;;9.05;8.25;;;22.00;62.70;;;;;;4879997;29;20171;-90
2022/06/26 03:42:00;;;;;;;8.63;7.82;;;22.00;62.70;;;;;;4868238;29;20176;-90
2022/06/26 03:44:28;;;;;;;9.00;8.20;;;22.00;63.70;;;;;;4922502;29;20656;-90
2022/06/26 03:46:54;;;;;;;8.85;8.05;;;22.00;62.80;;;;;;4922489;29;20166;-89
2022/06/26 03:49:21;;;;;;;8.90;8.10;;;22.10;62.80;;;;;;4920903;29;20180;-89
2022/06/26 03:51:51;;;;;;;8.60;7.85;;;22.10;62.70;;;;;;4920469;29;20178;-90
2022/06/26 03:54:30;;;;;;;9.10;8.30;;;22.00;62.70;;;;;;4888789;29;20226;-90
2022/06/26 03:56:58;;;;;;;8.25;7.45;;;22.10;62.50;;;;;;4930884;29;20166;-90
2022/06/26 03:59:33;;;;;;;8.68;7.80;;;22.10;62.60;;;;;;4914320;29;20177;-90
2022/06/26 04:01:59;;;;;;;9.48;8.60;;;22.10;62.50;;;;;;4931231;29;20158;-90
2022/06/26 04:04:25;;;;;;;8.68;7.88;;;22.10;62.50;;;;;;4915186;29;20246;-89
2022/06/26 04:06:52;;;;;;;8.70;7.90;;;22.00;62.50;;;;;;4915219;29;20182;-90
2022/06/26 04:09:22;;;;;;;9.25;8.45;;;22.10;62.60;;;;;;4915983;29;20174;-89
2022/06/26 04:11:48;;;;;;;8.65;7.85;;;22.10;62.60;;;;;;4931167;29;20265;-90
2022/06/26 04:14:14;;;;;;;9.35;8.45;;;22.10;62.50;;;;;;4915076;29;20240;-90
2022/06/26 04:16:44;;;;;;;8.95;8.15;;;22.10;62.40;;;;;;4915818;29;20159;-90
2022/06/26 04:19:11;;;;;;;8.70;7.90;;;22.10;62.50;;;;;;4931499;29;20169;-89
2022/06/26 04:21:37;;;;;;;8.70;7.80;;;22.10;62.40;;;;;;4915444;29;20170;-90
2022/06/26 04:24:08;;;;;;;8.18;7.47;;;22.20;62.30;;;;;;4915353;29;20252;-90
2022/06/26 04:26:35;;;;;;;8.95;8.15;;;22.10;62.30;;;;;;4931749;29;20174;-90
2022/06/26 04:29:02;;;;;;;8.85;8.05;;;22.20;62.30;;;;;;4915222;29;20170;-89
2022/06/26 04:31:29;;;;;;;8.13;7.43;;;22.20;62.30;;;;;;4914232;29;20169;-91
2022/06/26 04:33:58;;;;;;;8.70;7.90;;;22.20;62.20;;;;;;4914677;29;20198;-90
2022/06/26 04:36:25;;;;;;;9.38;8.48;;;22.20;62.20;;;;;;4931695;29;20613;-91
2022/06/26 04:38:51;;;;;;;8.82;8.02;;;22.20;62.10;;;;;;4915574;29;20173;-91
2022/06/26 04:43:56;;;;;;;8.25;7.55;;;22.20;62.10;;;;;;4940890;29;20331;-91
2022/06/26 04:46:23;;;;;;;8.70;7.90;;;22.30;62.00;;;;;;4911772;29;20171;-90
2022/06/26 04:49:00;;;;;;;8.20;7.50;;;22.20;62.10;;;;;;4911699;29;20218;-91
2022/06/26 04:51:27;;;;;;;8.77;7.97;;;22.20;62.00;;;;;;4911691;29;20645;-91
2022/06/26 04:54:07;;;;;;;8.27;7.57;;;22.30;61.80;;;;;;4911526;29;20210;-91
2022/06/26 04:56:34;;;;;;;9.20;8.35;;;22.30;61.70;;;;;;4927926;29;20624;-90
2022/06/26 04:59:05;;;;;;;8.90;8.10;;;22.20;61.70;;;;;;4912180;29;20210;-91
2022/06/26 05:01:31;;;;;;;8.68;7.88;;;22.30;61.80;;;;;;4911679;29;20190;-90
2022/06/26 05:04:00;;;;;;;8.68;7.88;;;22.30;61.90;;;;;;4911558;29;20190;-90
2022/06/26 05:06:27;;;;;;;9.00;8.18;;;22.30;61.90;;;;;;4912179;29;20241;-90
2022/06/26 05:09:01;;;;;;;8.13;7.40;;;22.30;61.80;;;;;;4911884;29;20759;-91
2022/06/26 05:11:28;;;;;;;8.60;7.80;;;22.30;61.70;;;;;;4911765;29;20698;-90
2022/06/26 05:13:56;;;;;;;8.85;8.05;;;22.30;61.60;;;;;;4915354;29;20213;-90
2022/06/26 05:16:23;;;;;;;9.32;8.48;;;22.30;62.50;;;;;;4931691;29;20159;-90
2022/06/26 05:18:54;;;;;;;8.35;7.63;;;22.30;61.70;;;;;;4916010;29;20649;-90
2022/06/26 05:21:22;;;;;;;8.73;7.93;;;22.30;61.70;;;;;;4930953;29;20162;-91
2022/06/26 05:23:54;;;;;;;8.77;7.97;;;22.30;61.70;;;;;;4915825;29;20174;-90
2022/06/26 05:26:23;;;;;;;8.70;7.90;;;22.30;61.40;;;;;;4931885;29;20221;-90
2022/06/26 05:28:52;;;;;;;8.57;7.82;;;22.40;61.60;;;;;;4931617;29;20174;-90
2022/06/26 05:31:17;;;;;;;9.38;8.48;;;22.30;61.60;;;;;;4931464;29;20214;-91
2022/06/26 05:33:43;;;;;;;8.88;8.05;;;22.30;61.60;;;;;;4914788;29;20206;-91
2022/06/26 05:36:14;;;;;;;8.40;7.70;;;22.30;61.60;;;;;;4916129;29;20158;-90
2022/06/26 05:38:40;;;;;;;8.68;7.88;;;22.30;61.40;;;;;;4930978;29;20173;-90
2022/06/26 05:41:08;;;;;;;8.30;7.60;;;22.40;61.40;;;;;;4916411;29;20193;-90
2022/06/26 05:43:35;;;;;;;8.63;7.88;;;22.30;61.40;;;;;;4918594;29;20158;-90
2022/06/26 05:46:02;;;;;;;8.60;7.80;;;22.40;61.50;;;;;;4919245;29;20288;-90
2022/06/26 05:48:28;;;;;;;8.70;7.90;;;22.40;61.40;;;;;;4919409;29;20388;-91
2022/06/26 05:50:56;;;;;;;8.48;7.72;;;22.40;61.40;;;;;;4919997;29;20182;-90
2022/06/26 05:53:22;;;;;;;8.93;8.13;;;22.40;61.30;;;;;;4919494;29;20178;-90
2022/06/26 05:55:50;;;;;;;7.97;7.32;;;22.40;61.20;;;;;;4918987;29;20206;-91
2022/06/26 05:58:16;;;;;;;8.25;7.55;;;22.40;61.30;;;;;;4919329;29;20173;-90
2022/06/26 06:00:42;;;;;;;8.73;7.95;;;22.40;61.30;;;;;;4919965;29;20171;-91
2022/06/26 06:03:09;;;;;;;8.63;7.82;;;22.40;61.40;;;;;;4919999;29;20279;-91
2022/06/26 06:05:37;;;;;;;8.43;7.70;;;22.40;61.30;;;;;;4919814;29;20178;-91
2022/06/26 06:08:04;;;;;;;8.23;7.53;;;22.40;61.30;;;;;;4919940;29;20708;-92
2022/06/26 06:10:33;;;;;;;8.10;7.40;;;22.40;61.30;;;;;;4919413;29;20186;-91
2022/06/26 06:12:59;;;;;;;8.27;7.47;;;22.40;61.40;;;;;;4920161;29;20298;-91
2022/06/26 06:15:25;;;;;;;8.32;7.60;;;22.40;61.40;;;;;;4934915;29;20202;-90
2022/06/26 06:17:59;;;;;;;8.57;7.78;;;22.50;61.20;;;;;;4934996;29;20159;-91
2022/06/26 06:20:36;;;;;;;8.05;7.35;;;22.50;61.20;;;;;;4934963;29;20174;-91
2022/06/26 06:23:07;;;;;;;8.23;7.53;;;22.50;61.20;;;;;;4934766;29;20182;-92
2022/06/26 06:25:38;;;;;;;8.40;7.70;;;22.50;61.20;;;;;;4919292;29;20174;-91
2022/06/26 06:28:06;;;;;;;8.48;7.68;;;22.50;60.90;;;;;;4935040;29;20269;-91
2022/06/26 06:30:34;;;;;;;8.15;7.43;;;22.50;61.10;;;;;;4919018;29;20173;-91
2022/06/26 06:33:00;;;;;;;8.80;8.00;;;22.50;61.00;;;;;;4919609;29;20174;-91
2022/06/26 06:35:26;;;;;;;8.38;7.57;;;22.50;61.00;;;;;;4919205;29;20210;-91
2022/06/26 06:37:58;;;;;;;8.55;7.75;;;22.50;61.00;;;;;;4919287;29;20256;-91
2022/06/26 06:40:30;;;;;;;8.82;8.02;;;22.50;61.80;;;;;;4933932;29;20174;-91
2022/06/26 06:42:56;;;;;;;8.60;7.80;;;22.40;61.00;;;;;;4918110;29;20197;-91
2022/06/26 06:45:23;;;;;;;8.52;7.72;;;22.50;60.80;;;;;;4919259;29;20181;-90
2022/06/26 06:47:49;;;;;;;9.23;8.38;;;22.50;60.80;;;;;;4934288;29;20225;-91
2022/06/26 06:50:17;;;;;;;8.60;7.80;;;22.60;60.80;;;;;;4917949;29;20210;-90
2022/06/26 06:52:43;;;;;;;8.60;7.80;;;22.60;60.80;;;;;;4917918;29;20708;-91
2022/06/26 06:55:09;;;;;;;9.02;8.13;;;22.60;60.80;;;;;;4918642;29;20221;-90
2022/06/26 06:57:37;;;;;;;8.95;8.15;;;22.60;60.70;;;;;;4918274;29;20174;-91
2022/06/26 07:00:06;;;;;;;9.02;8.13;;;22.60;60.80;;;;;;4933903;29;20181;-91
2022/06/26 07:02:32;;;;;;;8.77;7.97;;;22.60;60.80;;;;;;4918135;29;20174;-91
2022/06/26 07:04:58;;;;;;;8.52;7.72;;;22.60;60.70;;;;;;4918106;29;20209;-91
2022/06/26 07:07:30;;;;;;;8.68;7.88;;;22.60;60.80;;;;;;4918845;29;20221;-91
2022/06/26 07:09:56;;;;;;;8.70;7.90;;;22.60;60.80;;;;;;4917955;29;20267;-91
2022/06/26 07:12:22;;;;;;;9.02;8.23;;;22.50;60.90;;;;;;4934231;29;20174;-91
2022/06/26 07:14:49;;;;;;;8.60;7.88;;;22.40;61.20;;;;;;4929217;29;20241;-91
2022/06/26 07:17:17;;;;;;;8.27;7.53;;;22.40;61.30;;;;;;4913420;29;20250;-92
2022/06/26 07:19:44;;;;;;;7.88;7.18;;;22.40;61.40;;;;;;4929819;29;20174;-90
2022/06/26 07:22:13;;;;;;;8.38;7.68;;;22.50;61.20;;;;;;4914268;29;20175;-90
2022/06/26 07:24:46;;;;;;;8.18;7.40;;;22.50;61.30;;;;;;4913572;29;20194;-90
2022/06/26 07:27:17;;;;;;;8.82;8.02;;;22.50;62.20;;;;;;4891394;29;20188;-91
2022/06/26 07:29:43;;;;;;;8.20;7.45;;;22.40;61.50;;;;;;4875889;29;20289;-90
2022/06/26 07:32:12;;;;;;;8.10;7.40;;;22.50;61.60;;;;;;4875789;29;20192;-91
2022/06/26 07:34:39;;;;;;;8.15;7.40;;;22.50;61.40;;;;;;4876061;29;20243;-91
2022/06/26 07:37:05;;;;;;;8.43;7.60;;;22.50;61.30;;;;;;4860383;29;20184;-91
2022/06/26 07:39:33;;;;;;;8.00;7.30;;;22.50;61.30;;;;;;4860650;29;20192;-91
2022/06/26 07:41:59;;;;;;;8.18;7.47;;;22.40;61.40;;;;;;4860138;29;20183;-91
2022/06/26 07:44:26;;;;;;;8.48;7.72;;;22.50;61.40;;;;;;4860228;29;20675;-91
2022/06/26 07:46:52;;;;;;;8.05;7.35;;;22.50;61.20;;;;;;4911001;29;20186;-90
2022/06/26 07:49:19;;;;;;;7.90;7.20;;;22.50;61.40;;;;;;4881839;29;20209;-91
2022/06/26 07:51:46;;;;;;;8.68;7.88;;;22.50;61.20;;;;;;4897479;29;20269;-91
2022/06/26 07:54:13;;;;;;;7.55;6.90;;;22.60;61.30;;;;;;4882213;29;20217;-91
2022/06/26 07:56:42;;;;;;;7.80;7.10;;;22.50;61.00;;;;;;4881859;29;20242;-90
2022/06/26 07:59:09;;;;;;;7.78;7.07;;;22.60;61.10;;;;;;4928813;29;20186;-90
2022/06/26 08:01:35;;;;;;;7.82;7.13;;;22.60;61.20;;;;;;4901223;29;20174;-91
2022/06/26 08:04:04;;;;;;;8.10;7.40;;;22.60;61.20;;;;;;4900800;29;20185;-91
2022/06/26 08:06:33;;;;;;;8.15;7.45;;;22.60;61.10;;;;;;4901057;29;20174;-91
2022/06/26 08:09:00;;;;;;;7.82;7.13;;;22.60;61.00;;;;;;4901353;29;20178;-90
2022/06/26 08:11:31;;;;;;;7.80;7.10;;;22.60;61.10;;;;;;4900131;29;20174;-91
2022/06/26 08:13:57;;;;;;;7.70;7.00;;;22.60;61.00;;;;;;4916309;29;20198;-91
2022/06/26 08:16:27;;;;;;;6.95;6.35;;;22.60;61.00;;;;;;4901386;29;20233;-91
2022/06/26 08:18:54;;;;;;;6.80;6.20;;;22.60;61.10;;;;;;4915674;29;20171;-90
2022/06/26 08:24:07;;;;;;;7.38;6.78;;;22.60;61.00;;;;;;4920490;29;20174;-90
2022/06/26 08:26:36;;;;;;;7.60;6.90;;;22.60;61.00;;;;;;4900385;29;20174;-91
2022/06/26 08:29:02;;;;;;;8.35;7.55;;;22.70;61.00;;;;;;4900626;29;20174;-90
2022/06/26 08:31:31;;;;;;;7.85;7.15;;;22.60;60.80;;;;;;4899943;29;20535;-91
2022/06/26 08:34:01;;;;;;;7.70;7.00;;;22.60;60.90;;;;;;4916062;29;20229;-90
2022/06/26 08:36:28;;;;;;;7.43;6.72;;;22.60;61.20;;;;;;4917195;29;20174;-90
2022/06/26 08:38:55;;;;;;;7.40;6.80;;;22.60;61.20;;;;;;4900635;29;20258;-91
2022/06/26 08:41:28;;;;;;;8.00;7.30;;;22.60;61.20;;;;;;4901303;29;20245;-91
2022/06/26 08:43:58;;;;;;;7.55;6.85;;;22.60;61.00;;;;;;4916311;29;20170;-91
2022/06/26 08:46:26;;;;;;;7.25;6.65;;;22.70;61.10;;;;;;4900892;29;20180;-91
2022/06/26 08:48:52;;;;;;;7.40;6.80;;;22.70;62.00;;;;;;4882355;29;20369;-90
2022/06/26 08:54:51;;;;;;;7.68;6.97;;;22.70;61.00;;;;;;4884228;29;20211;-91
2022/06/26 08:57:17;;;;;;;7.15;6.55;;;22.70;61.10;;;;;;4854990;29;20255;-91
2022/06/26 08:59:44;;;;;;;7.55;6.85;;;22.70;61.20;;;;;;4854786;29;20184;-91
2022/06/26 09:02:13;;;;;;;7.13;6.53;;;22.70;61.10;;;;;;4839415;29;20224;-91
2022/06/26 09:04:44;;;;;;;7.05;6.40;;;22.70;60.90;;;;;;4854271;29;20660;-91
2022/06/26 09:07:10;;;;;;;7.60;6.90;;;22.80;61.00;;;;;;4854073;29;20196;-91
2022/06/26 09:09:39;;;;;;;6.75;6.15;;;22.70;61.10;;;;;;4839190;29;20545;-91
2022/06/26 09:12:07;;;;;;;7.32;6.65;;;22.70;61.10;;;;;;4853375;29;20203;-91
2022/06/26 09:14:43;;;;;;;7.55;6.75;;;22.80;60.80;;;;;;4838632;29;20288;-92
2022/06/26 09:17:12;;;;;;;6.85;6.25;;;22.60;60.80;;;;;;4823571;29;20698;-91
2022/06/26 09:19:41;;;;;;;7.35;6.68;;;22.70;61.40;;;;;;4855069;29;20682;-91
2022/06/26 09:22:12;;;;;;;7.32;6.72;;;22.70;61.20;;;;;;4839672;29;20222;-91
2022/06/26 09:24:55;;;;;;;7.95;7.25;;;22.60;61.40;;;;;;4854264;29;20201;-90
2022/06/26 09:27:21;;;;;;;7.75;7.05;;;22.60;61.70;;;;;;4861736;29;20177;-90
2022/06/26 09:29:50;;;;;;;7.55;6.85;;;22.60;61.70;;;;;;4895824;29;20246;-91
2022/06/26 09:32:23;;;;;;;7.63;6.93;;;22.70;61.50;;;;;;4880722;29;20180;-91
2022/06/26 09:34:56;;;;;;;7.10;6.50;;;22.70;61.50;;;;;;4896458;29;20696;-93
2022/06/26 09:37:36;;;;;;;7.07;6.47;;;22.70;61.50;;;;;;4911540;29;20638;-91
2022/06/26 09:40:13;;;;;;;7.45;6.75;;;22.70;61.50;;;;;;4881090;29;20170;-91
2022/06/26 09:42:42;;;;;;;7.00;6.40;;;22.70;61.30;;;;;;4910269;29;20234;-91
2022/06/26 09:45:09;;;;;;;7.60;6.90;;;22.80;61.40;;;;;;4910409;29;20189;-91
2022/06/26 09:47:35;;;;;;;6.53;6.03;;;22.70;61.40;;;;;;4901486;29;20214;-91
2022/06/26 09:50:13;;;;;;;7.30;6.70;;;22.70;61.30;;;;;;4913111;29;20208;-91
2022/06/26 09:52:40;;;;;;;6.63;6.07;;;22.70;61.20;;;;;;4943996;29;20285;-91
2022/06/26 09:55:09;;;;;;;6.88;6.28;;;22.80;61.40;;;;;;4912510;29;20198;-91
2022/06/26 09:57:36;;;;;;;6.93;6.22;;;22.80;61.50;;;;;;4911359;29;20170;-91
2022/06/26 10:00:06;;;;;;;7.15;6.55;;;22.80;61.20;;;;;;4927683;29;20186;-91
2022/06/26 10:07:50;;;;;;;6.63;6.03;;;22.80;61.50;;;;;;4930362;29;20237;-91
2022/06/26 10:10:21;;;;;;;7.07;6.47;;;22.80;61.60;;;;;;4873922;29;20191;-90
2022/06/26 10:12:58;;;;;;;7.05;6.45;;;22.90;61.50;;;;;;4889654;29;20223;-91
2022/06/26 10:15:30;;;;;;;6.82;6.22;;;22.80;61.30;;;;;;4874454;29;20210;-90
2022/06/26 10:18:24;;;;;;;7.35;6.68;;;22.90;61.30;;;;;;4874350;29;20210;-90
2022/06/26 10:20:50;;;;;;;7.00;6.40;;;22.80;61.40;;;;;;4873160;29;20785;-90
2022/06/26 10:23:33;;;;;;;6.60;6.10;;;22.80;61.50;;;;;;4872827;29;20210;-90
2022/06/26 10:26:17;;;;;;;7.00;6.40;;;22.80;62.40;;;;;;4872899;29;20191;-91
2022/06/26 10:29:08;;;;;;;7.30;6.70;;;22.80;61.80;;;;;;4874201;29;20171;-91
2022/06/26 10:31:47;;;;;;;6.75;6.15;;;22.80;61.80;;;;;;4873904;29;20215;-90
2022/06/26 10:34:19;;;;;;;6.90;6.20;;;22.80;61.90;;;;;;4874702;29;20198;-90
2022/06/26 10:37:04;;;;;;;6.57;5.97;;;22.90;61.60;;;;;;4875090;29;20190;-91
2022/06/26 10:39:45;;;;;;;7.10;6.50;;;22.80;61.80;;;;;;4876825;29;20175;-91
2022/06/26 10:45:06;;;;;;;7.10;6.40;;;22.80;61.80;;;;;;4931850;29;20154;-89
2022/06/26 10:47:42;;;;;;;7.30;6.60;;;22.80;61.90;;;;;;4912904;29;20225;-89
2022/06/26 10:50:27;;;;;;;6.88;6.28;;;22.80;61.90;;;;;;4913938;29;20182;-89
2022/06/26 10:53:10;;;;;;;6.68;6.07;;;22.80;61.90;;;;;;4928567;29;20209;-90
2022/06/26 10:55:38;;;;;;;6.53;6.00;;;22.70;62.10;;;;;;4914330;29;20204;-89
2022/06/26 10:58:03;;;;;;;6.55;6.05;;;22.70;62.40;;;;;;4912474;29;20541;-89
2022/06/26 11:00:29;;;;;;;6.85;6.25;;;22.70;62.40;;;;;;4913236;29;20177;-88
2022/06/26 11:02:56;;;;;;;7.30;6.60;;;22.80;62.20;;;;;;4912751;29;20174;-89
2022/06/26 11:05:27;;;;;;;6.80;6.20;;;22.80;62.00;;;;;;4928490;29;20169;-90
2022/06/26 11:07:53;;;;;;;7.20;6.60;;;22.90;62.40;;;;;;4932168;29;20170;-89
2022/06/26 11:10:22;;;;;;;7.00;6.35;;;22.90;62.00;;;;;;4915990;29;20222;-89
2022/06/26 11:12:49;;;;;;;7.05;6.10;;;22.90;61.80;;;;;;4917738;29;20185;-90
2022/06/26 11:15:24;;;;;;;6.97;6.35;;;22.90;62.00;;;;;;4933839;29;20182;-90
2022/06/26 11:17:58;;;;;;;6.80;6.20;;;23.00;62.00;;;;;;4932829;29;20154;-90
2022/06/26 11:23:42;;;;;;;6.93;6.32;;;23.00;62.10;;;;;;4932309;29;20648;-89
2022/06/26 11:26:21;;;;;;;6.85;6.15;;;22.90;61.90;;;;;;4875742;29;20230;-89
2022/06/26 11:28:55;;;;;;;6.63;5.95;;;22.90;62.30;;;;;;4874416;29;20167;-89
2022/06/26 11:31:23;;;;;;;7.53;6.68;;;22.90;62.00;;;;;;4872528;29;20588;-89
2022/06/26 11:33:48;;;;;;;6.80;6.10;;;23.00;62.00;;;;;;4871469;29;20263;-90
2022/06/26 11:36:17;;;;;;;7.53;6.82;;;22.90;62.00;;;;;;4872659;29;20175;-89
2022/06/26 11:38:49;;;;;;;6.72;6.13;;;22.90;62.10;;;;;;4871735;29;20250;-90
2022/06/26 11:41:16;;;;;;;6.82;6.13;;;22.90;62.30;;;;;;4872019;29;20219;-91
2022/06/26 11:43:45;;;;;;;7.03;6.30;;;23.00;62.20;;;;;;4872275;29;20191;-90
2022/06/26 11:46:11;;;;;;;6.82;6.15;;;22.90;62.00;;;;;;4871558;29;20195;-90
2022/06/26 11:48:37;;;;;;;6.65;6.05;;;22.90;62.10;;;;;;4871086;29;20326;-90
2022/06/26 11:51:06;;;;;;;6.90;6.30;;;22.90;62.40;;;;;;4871594;29;20190;-91
2022/06/26 11:53:33;;;;;;;6.82;6.22;;;22.90;62.20;;;;;;4871130;29;20163;-90
2022/06/26 11:56:01;;;;;;;6.57;5.97;;;22.90;62.40;;;;;;4871113;29;20219;-90
2022/06/26 11:58:34;;;;;;;6.75;6.05;;;22.90;62.30;;;;;;4856399;29;20171;-90
2022/06/26 12:01:09;;;;;;;6.85;6.25;;;22.90;62.30;;;;;;4871644;29;20184;-91
2022/06/26 12:03:53;;;;;;;6.53;5.90;;;22.90;62.60;;;;;;4910553;29;20506;-90
2022/06/26 12:06:28;;;;;;;7.28;6.68;;;23.00;62.50;;;;;;4924703;29;20651;-90
2022/06/26 12:08:57;;;;;;;6.55;5.93;;;22.90;62.30;;;;;;4909865;29;20225;-90
2022/06/26 12:11:24;;;;;;;6.47;5.88;;;23.00;62.60;;;;;;4908663;29;20174;-90
2022/06/26 12:13:51;;;;;;;6.72;6.13;;;23.00;62.30;;;;;;4909171;29;20529;-90
2022/06/26 12:16:18;;;;;;;6.80;6.20;;;22.90;62.30;;;;;;4909162;29;20536;-90
2022/06/26 12:18:45;;;;;;;9.52;6.05;;;22.90;62.30;;;;;;4924617;29;20233;-90
2022/06/26 12:21:15;;;;;;;6.93;6.30;;;22.90;62.60;;;;;;4909198;29;20541;-90
2022/06/26 12:23:46;;;;;;;6.78;6.18;;;22.90;62.60;;;;;;4924794;29;20220;-90
2022/06/26 12:26:18;;;;;;;6.95;6.20;;;23.00;62.40;;;;;;4924644;29;20170;-90
2022/06/26 12:28:49;;;;;;;6.30;5.80;;;23.00;62.70;;;;;;4940620;29;20225;-90
2022/06/26 12:31:20;;;;;;;6.70;6.10;;;23.00;62.70;;;;;;4909521;29;20170;-90
2022/06/26 12:33:51;;;;;;;6.72;6.13;;;23.00;62.40;;;;;;4909012;29;20621;-90
2022/06/26 12:36:17;;;;;;;6.75;6.15;;;23.00;62.30;;;;;;4925018;29;20170;-90
2022/06/26 12:38:45;;;;;;;6.40;5.80;;;23.00;62.40;;;;;;4909294;29;20201;-90
2022/06/26 12:41:20;;;;;;;6.72;6.13;;;23.00;62.60;;;;;;4909102;29;20552;-90
2022/06/26 12:43:48;;;;;;;6.75;6.15;;;23.00;62.40;;;;;;4910567;29;20181;-90
2022/06/26 12:46:17;;;;;;;6.25;5.65;;;23.00;62.40;;;;;;4909045;29;20514;-90
2022/06/26 12:48:45;;;;;;;6.47;5.95;;;23.10;62.20;;;;;;4923756;29;20273;-90
2022/06/26 12:51:12;;;;;;;6.82;6.20;;;23.00;62.30;;;;;;4907169;29;20182;-90
2022/06/26 12:53:43;;;;;;;7.10;6.50;;;23.00;62.30;;;;;;4924029;29;20204;-90
2022/06/26 12:56:10;;;;;;;7.00;6.40;;;23.00;62.40;;;;;;4923383;29;20224;-90
2022/06/26 12:58:40;;;;;;;6.88;6.28;;;23.00;62.50;;;;;;4907682;29;20206;-90
2022/06/26 13:01:08;;;;;;;6.43;5.93;;;23.00;62.70;;;;;;4908219;29;20183;-90
2022/06/26 13:03:35;;;;;;;6.60;6.00;;;23.00;62.70;;;;;;4923657;29;20260;-90
2022/06/26 13:06:02;;;;;;;6.30;5.80;;;23.00;62.60;;;;;;4907536;29;20197;-90
2022/06/26 13:08:28;;;;;;;6.60;6.00;;;23.00;62.50;;;;;;4922678;29;20277;-90
2022/06/26 13:11:22;;;;;;;6.60;6.00;;;23.00;62.70;;;;;;4923515;29;20169;-90
2022/06/26 13:13:44;;;;;;;6.95;6.35;;;23.00;62.50;;;;;;4925506;29;20184;-90
2022/06/26 13:16:11;;;;;;;6.78;6.07;;;23.10;62.30;;;;;;4923299;29;20233;-90
2022/06/26 13:18:38;;;;;;;6.57;6.00;;;23.00;62.40;;;;;;4907323;29;20169;-90
2022/06/26 13:21:05;;;;;;;6.38;5.78;;;23.00;62.50;;;;;;4923722;29;20181;-90
2022/06/26 13:23:31;;;;;;;7.18;6.57;;;23.10;62.50;;;;;;4909185;29;20174;-90